sensor_id;sensor_type;location;lat;lon;timestamp;P1;durP1;ratioP1;P2;durP2;ratioP2
45434;SDS011;31183;47.404;8.500;2023-12-07T00:01:59;9.95;;;7.28;;
45434;SDS011;31183;47.404;8.500;2023-12-07T00:04:26;12.30;;;9.07;;
45434;SDS011;31183;47.404;8.500;2023-12-07T00:06:52;11.63;;;9.23;;
45434;SDS011;31183;47.404;8.500;2023-12-07T00:09:19;10.07;;;7.70;;
45434;SDS011;31183;47.404;8.500;2023-12-07T00:11:46;11.85;;;7.82;;
45434;SDS011;31183;47.404;8.500;2023-12-07T00:14:12;10.32;;;7.72;;
45434;SDS011;31183;47.404;8.500;2023-12-07T00:16:39;10.00;;;8.40;;
45434;SDS011;31183;47.404;8.500;2023-12-07T00:19:06;11.95;;;8.40;;
45434;SDS011;31183;47.404;8.500;2023-12-07T00:21:33;11.98;;;7.60;;
45434;SDS011;31183;47.404;8.500;2023-12-07T00:23:59;11.35;;;8.10;;
45434;SDS011;31183;47.404;8.500;2023-12-07T00:26:27;10.18;;;8.75;;
45434;SDS011;31183;47.404;8.500;2023-12-07T00:28:53;9.57;;;8.15;;
45434;SDS011;31183;47.404;8.500;2023-12-07T00:31:20;11.20;;;8.23;;
45434;SDS011;31183;47.404;8.500;2023-12-07T00:33:47;11.07;;;9.10;;
45434;SDS011;31183;47.404;8.500;2023-12-07T00:36:14;11.30;;;7.97;;
45434;SDS011;31183;47.404;8.500;2023-12-07T00:38:40;10.60;;;8.80;;
45434;SDS011;31183;47.404;8.500;2023-12-07T00:41:07;11.25;;;8.73;;
45434;SDS011;31183;47.404;8.500;2023-12-07T00:43:34;9.60;;;8.60;;
45434;SDS011;31183;47.404;8.500;2023-12-07T00:46:00;10.30;;;8.20;;
45434;SDS011;31183;47.404;8.500;2023-12-07T00:48:28;13.00;;;9.20;;
45434;SDS011;31183;47.404;8.500;2023-12-07T00:50:55;8.55;;;6.97;;
45434;SDS011;31183;47.404;8.500;2023-12-07T00:53:22;10.40;;;8.35;;
45434;SDS011;31183;47.404;8.500;2023-12-07T00:55:48;10.20;;;7.93;;
45434;SDS011;31183;47.404;8.500;2023-12-07T00:58:15;8.35;;;7.55;;
45434;SDS011;31183;47.404;8.500;2023-12-07T01:00:42;8.43;;;7.10;;
45434;SDS011;31183;47.404;8.500;2023-12-07T01:03:08;10.07;;;7.97;;
45434;SDS011;31183;47.404;8.500;2023-12-07T01:05:35;9.40;;;7.80;;
45434;SDS011;31183;47.404;8.500;2023-12-07T01:08:02;10.27;;;8.05;;
45434;SDS011;31183;47.404;8.500;2023-12-07T01:10:29;10.52;;;7.50;;
45434;SDS011;31183;47.404;8.500;2023-12-07T01:12:56;9.18;;;7.65;;
45434;SDS011;31183;47.404;8.500;2023-12-07T01:15:23;9.57;;;8.25;;
45434;SDS011;31183;47.404;8.500;2023-12-07T01:17:49;12.18;;;8.77;;
45434;SDS011;31183;47.404;8.500;2023-12-07T01:20:16;11.75;;;8.77;;
45434;SDS011;31183;47.404;8.500;2023-12-07T01:22:43;10.52;;;8.75;;
45434;SDS011;31183;47.404;8.500;2023-12-07T01:25:12;10.70;;;8.07;;
45434;SDS011;31183;47.404;8.500;2023-12-07T01:27:43;11.25;;;7.95;;
45434;SDS011;31183;47.404;8.500;2023-12-07T01:30:10;12.60;;;8.75;;
45434;SDS011;31183;47.404;8.500;2023-12-07T01:32:37;11.38;;;8.82;;
45434;SDS011;31183;47.404;8.500;2023-12-07T01:35:03;10.10;;;8.38;;
45434;SDS011;31183;47.404;8.500;2023-12-07T01:37:31;13.07;;;9.07;;
45434;SDS011;31183;47.404;8.500;2023-12-07T01:39:57;10.07;;;7.97;;
45434;SDS011;31183;47.404;8.500;2023-12-07T01:42:24;11.10;;;8.35;;
45434;SDS011;31183;47.404;8.500;2023-12-07T01:44:51;11.48;;;8.90;;
45434;SDS011;31183;47.404;8.500;2023-12-07T01:47:18;11.95;;;8.48;;
45434;SDS011;31183;47.404;8.500;2023-12-07T01:49:44;9.80;;;7.88;;
45434;SDS011;31183;47.404;8.500;2023-12-07T01:52:11;10.60;;;8.10;;
45434;SDS011;31183;47.404;8.500;2023-12-07T01:54:39;13.02;;;8.25;;
45434;SDS011;31183;47.404;8.500;2023-12-07T01:57:06;11.20;;;7.70;;
45434;SDS011;31183;47.404;8.500;2023-12-07T01:59:33;10.18;;;7.82;;
45434;SDS011;31183;47.404;8.500;2023-12-07T02:02:00;10.68;;;8.02;;
45434;SDS011;31183;47.404;8.500;2023-12-07T02:04:26;9.07;;;7.30;;
45434;SDS011;31183;47.404;8.500;2023-12-07T02:06:54;11.82;;;8.18;;
45434;SDS011;31183;47.404;8.500;2023-12-07T02:09:23;14.30;;;10.73;;
45434;SDS011;31183;47.404;8.500;2023-12-07T02:11:50;11.40;;;9.70;;
45434;SDS011;31183;47.404;8.500;2023-12-07T02:14:16;15.20;;;10.60;;
45434;SDS011;31183;47.404;8.500;2023-12-07T02:16:55;12.73;;;9.38;;
45434;SDS011;31183;47.404;8.500;2023-12-07T02:22:37;15.63;;;11.70;;
45434;SDS011;31183;47.404;8.500;2023-12-07T02:25:08;18.65;;;12.15;;
45434;SDS011;31183;47.404;8.500;2023-12-07T02:27:37;13.50;;;10.13;;
45434;SDS011;31183;47.404;8.500;2023-12-07T02:30:06;13.82;;;10.73;;
45434;SDS011;31183;47.404;8.500;2023-12-07T02:32:41;16.10;;;10.40;;
45434;SDS011;31183;47.404;8.500;2023-12-07T02:35:10;16.48;;;10.75;;
45434;SDS011;31183;47.404;8.500;2023-12-07T02:37:43;16.90;;;11.48;;
45434;SDS011;31183;47.404;8.500;2023-12-07T02:40:11;15.10;;;11.35;;
45434;SDS011;31183;47.404;8.500;2023-12-07T02:42:41;13.68;;;10.65;;
45434;SDS011;31183;47.404;8.500;2023-12-07T02:45:10;14.77;;;10.48;;
45434;SDS011;31183;47.404;8.500;2023-12-07T02:47:37;16.10;;;10.50;;
45434;SDS011;31183;47.404;8.500;2023-12-07T02:50:05;11.55;;;9.95;;
45434;SDS011;31183;47.404;8.500;2023-12-07T02:52:33;16.33;;;11.40;;
45434;SDS011;31183;47.404;8.500;2023-12-07T02:55:00;11.38;;;9.23;;
45434;SDS011;31183;47.404;8.500;2023-12-07T02:57:28;13.02;;;10.38;;
45434;SDS011;31183;47.404;8.500;2023-12-07T02:59:56;13.30;;;10.15;;
45434;SDS011;31183;47.404;8.500;2023-12-07T03:02:22;16.05;;;10.65;;
45434;SDS011;31183;47.404;8.500;2023-12-07T03:04:50;17.08;;;11.18;;
45434;SDS011;31183;47.404;8.500;2023-12-07T03:07:16;15.18;;;11.38;;
45434;SDS011;31183;47.404;8.500;2023-12-07T03:09:43;14.95;;;11.40;;
45434;SDS011;31183;47.404;8.500;2023-12-07T03:12:10;16.15;;;12.35;;
45434;SDS011;31183;47.404;8.500;2023-12-07T03:14:36;15.35;;;11.40;;
45434;SDS011;31183;47.404;8.500;2023-12-07T03:17:03;17.05;;;12.10;;
45434;SDS011;31183;47.404;8.500;2023-12-07T03:19:30;15.88;;;11.48;;
45434;SDS011;31183;47.404;8.500;2023-12-07T03:21:57;16.38;;;11.32;;
45434;SDS011;31183;47.404;8.500;2023-12-07T03:24:24;17.48;;;13.32;;
45434;SDS011;31183;47.404;8.500;2023-12-07T03:26:50;16.55;;;12.57;;
45434;SDS011;31183;47.404;8.500;2023-12-07T03:29:17;16.48;;;12.48;;
45434;SDS011;31183;47.404;8.500;2023-12-07T03:31:44;18.35;;;12.73;;
45434;SDS011;31183;47.404;8.500;2023-12-07T03:34:10;14.57;;;11.85;;
45434;SDS011;31183;47.404;8.500;2023-12-07T03:36:38;12.60;;;10.23;;
45434;SDS011;31183;47.404;8.500;2023-12-07T03:39:05;17.83;;;12.75;;
45434;SDS011;31183;47.404;8.500;2023-12-07T03:41:32;20.42;;;13.25;;
45434;SDS011;31183;47.404;8.500;2023-12-07T03:43:59;17.08;;;12.77;;
45434;SDS011;31183;47.404;8.500;2023-12-07T03:46:25;16.13;;;12.23;;
45434;SDS011;31183;47.404;8.500;2023-12-07T03:48:52;20.08;;;13.63;;
45434;SDS011;31183;47.404;8.500;2023-12-07T03:51:19;17.73;;;12.10;;
45434;SDS011;31183;47.404;8.500;2023-12-07T03:53:45;17.05;;;12.52;;
45434;SDS011;31183;47.404;8.500;2023-12-07T03:56:24;20.30;;;13.32;;
45434;SDS011;31183;47.404;8.500;2023-12-07T03:58:52;18.00;;;13.77;;
45434;SDS011;31183;47.404;8.500;2023-12-07T04:01:22;20.65;;;14.35;;
45434;SDS011;31183;47.404;8.500;2023-12-07T04:03:54;19.10;;;14.50;;
45434;SDS011;31183;47.404;8.500;2023-12-07T04:06:22;19.17;;;12.75;;
45434;SDS011;31183;47.404;8.500;2023-12-07T04:08:49;20.73;;;13.70;;
45434;SDS011;31183;47.404;8.500;2023-12-07T04:11:16;56.97;;;18.38;;
45434;SDS011;31183;47.404;8.500;2023-12-07T04:13:43;23.00;;;15.48;;
45434;SDS011;31183;47.404;8.500;2023-12-07T04:16:10;26.33;;;17.00;;
45434;SDS011;31183;47.404;8.500;2023-12-07T04:18:37;23.75;;;16.95;;
45434;SDS011;31183;47.404;8.500;2023-12-07T04:21:04;22.45;;;15.73;;
45434;SDS011;31183;47.404;8.500;2023-12-07T04:23:31;24.80;;;16.63;;
45434;SDS011;31183;47.404;8.500;2023-12-07T04:25:58;23.42;;;16.77;;
45434;SDS011;31183;47.404;8.500;2023-12-07T04:28:25;22.95;;;17.80;;
45434;SDS011;31183;47.404;8.500;2023-12-07T04:30:52;24.38;;;16.90;;
45434;SDS011;31183;47.404;8.500;2023-12-07T04:33:19;25.27;;;15.82;;
45434;SDS011;31183;47.404;8.500;2023-12-07T04:35:46;21.13;;;15.10;;
45434;SDS011;31183;47.404;8.500;2023-12-07T04:38:13;20.88;;;14.70;;
45434;SDS011;31183;47.404;8.500;2023-12-07T04:40:40;19.38;;;14.18;;
45434;SDS011;31183;47.404;8.500;2023-12-07T04:43:08;25.02;;;15.05;;
45434;SDS011;31183;47.404;8.500;2023-12-07T04:45:34;20.73;;;14.13;;
45434;SDS011;31183;47.404;8.500;2023-12-07T04:48:01;18.83;;;14.02;;
45434;SDS011;31183;47.404;8.500;2023-12-07T04:50:29;20.83;;;15.30;;
45434;SDS011;31183;47.404;8.500;2023-12-07T04:52:56;20.95;;;15.30;;
45434;SDS011;31183;47.404;8.500;2023-12-07T04:55:23;17.10;;;13.57;;
45434;SDS011;31183;47.404;8.500;2023-12-07T04:57:50;19.95;;;14.68;;
45434;SDS011;31183;47.404;8.500;2023-12-07T05:00:17;17.45;;;13.93;;
45434;SDS011;31183;47.404;8.500;2023-12-07T05:02:44;19.40;;;13.85;;
45434;SDS011;31183;47.404;8.500;2023-12-07T05:05:10;21.00;;;14.60;;
45434;SDS011;31183;47.404;8.500;2023-12-07T05:07:38;25.67;;;17.27;;
45434;SDS011;31183;47.404;8.500;2023-12-07T05:10:04;22.40;;;16.02;;
45434;SDS011;31183;47.404;8.500;2023-12-07T05:12:31;21.13;;;14.27;;
45434;SDS011;31183;47.404;8.500;2023-12-07T05:14:59;27.13;;;16.02;;
45434;SDS011;31183;47.404;8.500;2023-12-07T05:17:25;22.35;;;16.48;;
45434;SDS011;31183;47.404;8.500;2023-12-07T05:19:52;21.40;;;15.88;;
45434;SDS011;31183;47.404;8.500;2023-12-07T05:22:19;20.88;;;15.32;;
45434;SDS011;31183;47.404;8.500;2023-12-07T05:24:47;20.83;;;14.88;;
45434;SDS011;31183;47.404;8.500;2023-12-07T05:27:14;19.60;;;14.63;;
45434;SDS011;31183;47.404;8.500;2023-12-07T05:29:41;20.63;;;14.35;;
45434;SDS011;31183;47.404;8.500;2023-12-07T05:32:08;20.13;;;14.43;;
45434;SDS011;31183;47.404;8.500;2023-12-07T05:34:34;18.38;;;13.75;;
45434;SDS011;31183;47.404;8.500;2023-12-07T05:37:01;20.42;;;15.02;;
45434;SDS011;31183;47.404;8.500;2023-12-07T05:39:30;21.77;;;15.68;;
45434;SDS011;31183;47.404;8.500;2023-12-07T05:41:57;21.38;;;15.15;;
45434;SDS011;31183;47.404;8.500;2023-12-07T05:44:23;23.25;;;16.10;;
45434;SDS011;31183;47.404;8.500;2023-12-07T05:46:50;25.75;;;15.82;;
45434;SDS011;31183;47.404;8.500;2023-12-07T05:49:17;21.30;;;14.68;;
45434;SDS011;31183;47.404;8.500;2023-12-07T05:51:43;25.17;;;16.35;;
45434;SDS011;31183;47.404;8.500;2023-12-07T05:54:10;22.85;;;16.00;;
45434;SDS011;31183;47.404;8.500;2023-12-07T05:56:37;21.23;;;15.10;;
45434;SDS011;31183;47.404;8.500;2023-12-07T05:59:03;20.60;;;14.40;;
45434;SDS011;31183;47.404;8.500;2023-12-07T06:01:30;18.60;;;14.93;;
45434;SDS011;31183;47.404;8.500;2023-12-07T06:03:58;19.30;;;14.15;;
45434;SDS011;31183;47.404;8.500;2023-12-07T06:06:25;18.40;;;14.23;;
45434;SDS011;31183;47.404;8.500;2023-12-07T06:08:52;21.27;;;15.75;;
45434;SDS011;31183;47.404;8.500;2023-12-07T06:11:18;28.17;;;17.10;;
45434;SDS011;31183;47.404;8.500;2023-12-07T06:13:45;27.30;;;16.95;;
45434;SDS011;31183;47.404;8.500;2023-12-07T06:16:12;34.60;;;16.55;;
45434;SDS011;31183;47.404;8.500;2023-12-07T06:18:39;28.33;;;16.20;;
45434;SDS011;31183;47.404;8.500;2023-12-07T06:21:07;22.77;;;15.35;;
45434;SDS011;31183;47.404;8.500;2023-12-07T06:23:33;18.80;;;14.23;;
45434;SDS011;31183;47.404;8.500;2023-12-07T06:26:00;19.27;;;14.02;;
45434;SDS011;31183;47.404;8.500;2023-12-07T06:28:28;17.77;;;14.05;;
45434;SDS011;31183;47.404;8.500;2023-12-07T06:30:55;34.55;;;15.23;;
45434;SDS011;31183;47.404;8.500;2023-12-07T06:33:23;21.70;;;15.50;;
45434;SDS011;31183;47.404;8.500;2023-12-07T06:35:50;21.70;;;14.05;;
45434;SDS011;31183;47.404;8.500;2023-12-07T06:38:17;29.58;;;15.25;;
45434;SDS011;31183;47.404;8.500;2023-12-07T06:40:46;19.83;;;14.27;;
45434;SDS011;31183;47.404;8.500;2023-12-07T06:43:13;27.42;;;14.52;;
45434;SDS011;31183;47.404;8.500;2023-12-07T06:45:40;19.63;;;14.52;;
45434;SDS011;31183;47.404;8.500;2023-12-07T06:48:07;22.05;;;13.88;;
45434;SDS011;31183;47.404;8.500;2023-12-07T06:50:34;19.10;;;13.15;;
45434;SDS011;31183;47.404;8.500;2023-12-07T06:53:01;20.08;;;14.00;;
45434;SDS011;31183;47.404;8.500;2023-12-07T06:55:28;50.67;;;15.20;;
45434;SDS011;31183;47.404;8.500;2023-12-07T06:57:54;18.98;;;13.27;;
45434;SDS011;31183;47.404;8.500;2023-12-07T07:00:21;19.95;;;14.52;;
45434;SDS011;31183;47.404;8.500;2023-12-07T07:02:48;22.70;;;13.63;;
45434;SDS011;31183;47.404;8.500;2023-12-07T07:05:15;32.90;;;13.85;;
45434;SDS011;31183;47.404;8.500;2023-12-07T07:07:42;24.42;;;14.40;;
45434;SDS011;31183;47.404;8.500;2023-12-07T07:10:09;19.55;;;13.63;;
45434;SDS011;31183;47.404;8.500;2023-12-07T07:12:36;24.35;;;14.18;;
45434;SDS011;31183;47.404;8.500;2023-12-07T07:15:03;21.13;;;13.77;;
45434;SDS011;31183;47.404;8.500;2023-12-07T07:17:30;31.40;;;14.85;;
45434;SDS011;31183;47.404;8.500;2023-12-07T07:19:58;21.45;;;13.02;;
45434;SDS011;31183;47.404;8.500;2023-12-07T07:22:25;20.58;;;13.48;;
45434;SDS011;31183;47.404;8.500;2023-12-07T07:24:52;44.20;;;16.55;;
45434;SDS011;31183;47.404;8.500;2023-12-07T07:27:18;23.48;;;13.65;;
45434;SDS011;31183;47.404;8.500;2023-12-07T07:29:45;19.13;;;13.35;;
45434;SDS011;31183;47.404;8.500;2023-12-07T07:32:13;28.80;;;13.98;;
45434;SDS011;31183;47.404;8.500;2023-12-07T07:34:39;35.83;;;15.05;;
45434;SDS011;31183;47.404;8.500;2023-12-07T07:37:06;68.47;;;16.52;;
45434;SDS011;31183;47.404;8.500;2023-12-07T07:39:33;18.80;;;13.00;;
45434;SDS011;31183;47.404;8.500;2023-12-07T07:42:00;48.63;;;14.93;;
45434;SDS011;31183;47.404;8.500;2023-12-07T07:44:27;20.20;;;14.90;;
45434;SDS011;31183;47.404;8.500;2023-12-07T07:46:54;20.88;;;13.10;;
45434;SDS011;31183;47.404;8.500;2023-12-07T07:49:20;23.58;;;14.10;;
45434;SDS011;31183;47.404;8.500;2023-12-07T07:51:47;25.67;;;14.70;;
45434;SDS011;31183;47.404;8.500;2023-12-07T07:54:14;26.05;;;16.00;;
45434;SDS011;31183;47.404;8.500;2023-12-07T07:56:41;24.02;;;14.80;;
45434;SDS011;31183;47.404;8.500;2023-12-07T07:59:09;26.92;;;15.90;;
45434;SDS011;31183;47.404;8.500;2023-12-07T08:01:37;21.83;;;14.45;;
45434;SDS011;31183;47.404;8.500;2023-12-07T08:04:04;21.23;;;13.82;;
45434;SDS011;31183;47.404;8.500;2023-12-07T08:06:31;22.00;;;13.75;;
45434;SDS011;31183;47.404;8.500;2023-12-07T08:09:02;23.17;;;14.50;;
45434;SDS011;31183;47.404;8.500;2023-12-07T08:11:29;21.75;;;13.48;;
45434;SDS011;31183;47.404;8.500;2023-12-07T08:13:56;24.90;;;14.85;;
45434;SDS011;31183;47.404;8.500;2023-12-07T08:16:23;22.10;;;14.15;;
45434;SDS011;31183;47.404;8.500;2023-12-07T08:18:50;28.88;;;14.00;;
45434;SDS011;31183;47.404;8.500;2023-12-07T08:21:20;29.75;;;16.08;;
45434;SDS011;31183;47.404;8.500;2023-12-07T08:23:53;25.35;;;15.90;;
45434;SDS011;31183;47.404;8.500;2023-12-07T08:26:20;25.17;;;16.00;;
45434;SDS011;31183;47.404;8.500;2023-12-07T08:28:47;29.40;;;15.82;;
45434;SDS011;31183;47.404;8.500;2023-12-07T08:31:14;25.50;;;15.90;;
45434;SDS011;31183;47.404;8.500;2023-12-07T08:33:41;24.35;;;15.05;;
45434;SDS011;31183;47.404;8.500;2023-12-07T08:36:08;27.17;;;15.57;;
45434;SDS011;31183;47.404;8.500;2023-12-07T08:38:35;32.95;;;17.55;;
45434;SDS011;31183;47.404;8.500;2023-12-07T08:41:01;26.90;;;16.52;;
45434;SDS011;31183;47.404;8.500;2023-12-07T08:43:29;28.25;;;16.00;;
45434;SDS011;31183;47.404;8.500;2023-12-07T08:45:57;32.42;;;18.48;;
45434;SDS011;31183;47.404;8.500;2023-12-07T08:48:27;40.67;;;21.87;;
45434;SDS011;31183;47.404;8.500;2023-12-07T08:50:54;35.10;;;19.48;;
45434;SDS011;31183;47.404;8.500;2023-12-07T08:53:20;33.55;;;18.98;;
45434;SDS011;31183;47.404;8.500;2023-12-07T08:55:47;31.90;;;19.00;;
45434;SDS011;31183;47.404;8.500;2023-12-07T08:58:14;38.05;;;19.90;;
45434;SDS011;31183;47.404;8.500;2023-12-07T09:00:40;33.13;;;19.02;;
45434;SDS011;31183;47.404;8.500;2023-12-07T09:03:07;33.03;;;19.90;;
45434;SDS011;31183;47.404;8.500;2023-12-07T09:05:34;32.42;;;19.35;;
45434;SDS011;31183;47.404;8.500;2023-12-07T09:08:01;30.80;;;18.58;;
45434;SDS011;31183;47.404;8.500;2023-12-07T09:10:27;28.15;;;18.77;;
45434;SDS011;31183;47.404;8.500;2023-12-07T09:12:54;27.45;;;17.75;;
45434;SDS011;31183;47.404;8.500;2023-12-07T09:15:21;26.02;;;16.42;;
45434;SDS011;31183;47.404;8.500;2023-12-07T09:17:48;28.10;;;17.50;;
45434;SDS011;31183;47.404;8.500;2023-12-07T09:20:15;38.22;;;17.65;;
45434;SDS011;31183;47.404;8.500;2023-12-07T09:22:45;27.95;;;18.45;;
45434;SDS011;31183;47.404;8.500;2023-12-07T09:25:17;33.40;;;18.35;;
45434;SDS011;31183;47.404;8.500;2023-12-07T09:27:44;29.65;;;18.23;;
45434;SDS011;31183;47.404;8.500;2023-12-07T09:30:11;29.75;;;18.75;;
45434;SDS011;31183;47.404;8.500;2023-12-07T09:32:42;30.75;;;18.17;;
45434;SDS011;31183;47.404;8.500;2023-12-07T09:35:11;29.83;;;18.60;;
45434;SDS011;31183;47.404;8.500;2023-12-07T09:37:42;30.48;;;20.60;;
45434;SDS011;31183;47.404;8.500;2023-12-07T09:40:10;31.00;;;18.10;;
45434;SDS011;31183;47.404;8.500;2023-12-07T09:42:42;22.63;;;15.20;;
45434;SDS011;31183;47.404;8.500;2023-12-07T09:45:09;32.85;;;16.38;;
45434;SDS011;31183;47.404;8.500;2023-12-07T09:47:36;22.13;;;15.20;;
45434;SDS011;31183;47.404;8.500;2023-12-07T09:50:05;21.42;;;14.50;;
45434;SDS011;31183;47.404;8.500;2023-12-07T09:52:35;24.23;;;14.90;;
45434;SDS011;31183;47.404;8.500;2023-12-07T09:55:02;24.95;;;16.30;;
45434;SDS011;31183;47.404;8.500;2023-12-07T09:57:30;28.45;;;18.48;;
45434;SDS011;31183;47.404;8.500;2023-12-07T09:59:58;28.40;;;17.10;;
45434;SDS011;31183;47.404;8.500;2023-12-07T10:02:25;26.95;;;17.52;;
45434;SDS011;31183;47.404;8.500;2023-12-07T10:05:04;25.88;;;16.45;;
45434;SDS011;31183;47.404;8.500;2023-12-07T10:07:35;29.30;;;18.57;;
45434;SDS011;31183;47.404;8.500;2023-12-07T10:10:03;26.17;;;16.85;;
45434;SDS011;31183;47.404;8.500;2023-12-07T10:12:31;28.92;;;16.95;;
45434;SDS011;31183;47.404;8.500;2023-12-07T10:15:14;25.63;;;16.75;;
45434;SDS011;31183;47.404;8.500;2023-12-07T10:17:52;25.73;;;17.80;;
45434;SDS011;31183;47.404;8.500;2023-12-07T10:20:24;22.20;;;15.95;;
45434;SDS011;31183;47.404;8.500;2023-12-07T10:23:05;22.80;;;14.80;;
45434;SDS011;31183;47.404;8.500;2023-12-07T10:25:37;20.53;;;13.73;;
45434;SDS011;31183;47.404;8.500;2023-12-07T10:28:05;23.38;;;14.95;;
45434;SDS011;31183;47.404;8.500;2023-12-07T10:30:34;22.98;;;15.70;;
45434;SDS011;31183;47.404;8.500;2023-12-07T10:33:04;23.98;;;15.95;;
45434;SDS011;31183;47.404;8.500;2023-12-07T10:35:33;23.67;;;15.60;;
45434;SDS011;31183;47.404;8.500;2023-12-07T10:38:10;23.33;;;15.32;;
45434;SDS011;31183;47.404;8.500;2023-12-07T10:40:40;22.27;;;15.90;;
45434;SDS011;31183;47.404;8.500;2023-12-07T10:43:08;22.75;;;16.50;;
45434;SDS011;31183;47.404;8.500;2023-12-07T10:45:35;22.63;;;16.77;;
45434;SDS011;31183;47.404;8.500;2023-12-07T10:48:06;23.55;;;16.70;;
45434;SDS011;31183;47.404;8.500;2023-12-07T10:50:35;23.63;;;16.70;;
45434;SDS011;31183;47.404;8.500;2023-12-07T10:55:55;21.60;;;16.05;;
45434;SDS011;31183;47.404;8.500;2023-12-07T10:58:23;21.45;;;16.38;;
45434;SDS011;31183;47.404;8.500;2023-12-07T11:00:52;21.10;;;16.00;;
45434;SDS011;31183;47.404;8.500;2023-12-07T11:03:20;20.83;;;16.77;;
45434;SDS011;31183;47.404;8.500;2023-12-07T11:05:48;18.83;;;14.68;;
45434;SDS011;31183;47.404;8.500;2023-12-07T11:11:14;25.13;;;16.83;;
45434;SDS011;31183;47.404;8.500;2023-12-07T11:14:05;20.27;;;16.05;;
45434;SDS011;31183;47.404;8.500;2023-12-07T11:16:36;21.02;;;15.77;;
45434;SDS011;31183;47.404;8.500;2023-12-07T11:21:38;18.63;;;13.60;;
45434;SDS011;31183;47.404;8.500;2023-12-07T11:24:05;20.17;;;14.65;;
45434;SDS011;31183;47.404;8.500;2023-12-07T11:26:32;22.40;;;16.75;;
45434;SDS011;31183;47.404;8.500;2023-12-07T11:28:59;20.98;;;16.08;;
45434;SDS011;31183;47.404;8.500;2023-12-07T11:31:25;20.08;;;15.68;;
45434;SDS011;31183;47.404;8.500;2023-12-07T11:33:53;22.60;;;17.85;;
45434;SDS011;31183;47.404;8.500;2023-12-07T11:36:20;23.92;;;17.10;;
45434;SDS011;31183;47.404;8.500;2023-12-07T11:41:45;23.15;;;16.23;;
45434;SDS011;31183;47.404;8.500;2023-12-07T11:46:43;21.30;;;15.48;;
45434;SDS011;31183;47.404;8.500;2023-12-07T11:49:10;22.85;;;16.80;;
45434;SDS011;31183;47.404;8.500;2023-12-07T11:51:53;23.67;;;15.32;;
45434;SDS011;31183;47.404;8.500;2023-12-07T11:54:21;20.23;;;14.75;;
45434;SDS011;31183;47.404;8.500;2023-12-07T11:56:55;19.48;;;14.80;;
45434;SDS011;31183;47.404;8.500;2023-12-07T11:59:22;19.00;;;13.73;;
45434;SDS011;31183;47.404;8.500;2023-12-07T12:01:59;19.98;;;14.57;;
45434;SDS011;31183;47.404;8.500;2023-12-07T12:04:28;18.50;;;13.63;;
45434;SDS011;31183;47.404;8.500;2023-12-07T12:06:55;20.73;;;13.93;;
45434;SDS011;31183;47.404;8.500;2023-12-07T12:09:25;20.40;;;13.73;;
45434;SDS011;31183;47.404;8.500;2023-12-07T12:11:58;18.17;;;14.77;;
45434;SDS011;31183;47.404;8.500;2023-12-07T12:14:27;19.55;;;14.13;;
45434;SDS011;31183;47.404;8.500;2023-12-07T12:16:57;20.10;;;13.75;;
45434;SDS011;31183;47.404;8.500;2023-12-07T12:19:24;17.98;;;13.00;;
45434;SDS011;31183;47.404;8.500;2023-12-07T12:22:00;20.02;;;14.63;;
45434;SDS011;31183;47.404;8.500;2023-12-07T12:24:31;19.48;;;14.27;;
45434;SDS011;31183;47.404;8.500;2023-12-07T12:26:59;20.85;;;14.95;;
45434;SDS011;31183;47.404;8.500;2023-12-07T12:29:26;19.30;;;13.55;;
45434;SDS011;31183;47.404;8.500;2023-12-07T12:32:00;18.83;;;13.65;;
45434;SDS011;31183;47.404;8.500;2023-12-07T12:34:32;18.67;;;14.00;;
45434;SDS011;31183;47.404;8.500;2023-12-07T12:37:00;20.05;;;14.68;;
45434;SDS011;31183;47.404;8.500;2023-12-07T12:39:28;22.17;;;14.98;;
45434;SDS011;31183;47.404;8.500;2023-12-07T12:41:59;18.33;;;13.45;;
45434;SDS011;31183;47.404;8.500;2023-12-07T12:44:27;21.30;;;15.23;;
45434;SDS011;31183;47.404;8.500;2023-12-07T12:47:04;20.23;;;14.18;;
45434;SDS011;31183;47.404;8.500;2023-12-07T12:49:36;20.13;;;14.93;;
45434;SDS011;31183;47.404;8.500;2023-12-07T12:52:09;19.42;;;13.98;;
45434;SDS011;31183;47.404;8.500;2023-12-07T12:54:37;19.23;;;13.90;;
45434;SDS011;31183;47.404;8.500;2023-12-07T12:57:05;19.98;;;14.18;;
45434;SDS011;31183;47.404;8.500;2023-12-07T12:59:33;21.00;;;15.10;;
45434;SDS011;31183;47.404;8.500;2023-12-07T13:02:01;18.73;;;14.27;;
45434;SDS011;31183;47.404;8.500;2023-12-07T13:04:30;21.25;;;14.27;;
45434;SDS011;31183;47.404;8.500;2023-12-07T13:07:07;20.95;;;14.02;;
45434;SDS011;31183;47.404;8.500;2023-12-07T13:09:34;19.33;;;13.85;;
45434;SDS011;31183;47.404;8.500;2023-12-07T13:12:00;19.65;;;13.43;;
45434;SDS011;31183;47.404;8.500;2023-12-07T13:14:31;17.45;;;13.30;;
45434;SDS011;31183;47.404;8.500;2023-12-07T13:17:01;24.02;;;15.35;;
45434;SDS011;31183;47.404;8.500;2023-12-07T13:19:30;20.42;;;13.77;;
45434;SDS011;31183;47.404;8.500;2023-12-07T13:21:58;20.50;;;14.98;;
45434;SDS011;31183;47.404;8.500;2023-12-07T13:24:25;21.25;;;14.57;;
45434;SDS011;31183;47.404;8.500;2023-12-07T13:26:52;20.00;;;14.48;;
45434;SDS011;31183;47.404;8.500;2023-12-07T13:29:18;20.70;;;15.00;;
45434;SDS011;31183;47.404;8.500;2023-12-07T13:31:57;20.15;;;14.52;;
45434;SDS011;31183;47.404;8.500;2023-12-07T13:34:24;19.25;;;15.43;;
45434;SDS011;31183;47.404;8.500;2023-12-07T13:36:52;21.13;;;14.50;;
45434;SDS011;31183;47.404;8.500;2023-12-07T13:39:19;22.83;;;15.35;;
45434;SDS011;31183;47.404;8.500;2023-12-07T13:41:56;27.23;;;17.67;;
45434;SDS011;31183;47.404;8.500;2023-12-07T13:44:25;23.67;;;16.63;;
45434;SDS011;31183;47.404;8.500;2023-12-07T13:46:54;25.67;;;17.25;;
45434;SDS011;31183;47.404;8.500;2023-12-07T13:49:23;23.70;;;17.67;;
45434;SDS011;31183;47.404;8.500;2023-12-07T13:51:59;21.38;;;15.85;;
45434;SDS011;31183;47.404;8.500;2023-12-07T13:54:31;24.52;;;16.98;;
45434;SDS011;31183;47.404;8.500;2023-12-07T13:57:18;23.95;;;16.98;;
45434;SDS011;31183;47.404;8.500;2023-12-07T13:59:46;22.20;;;16.73;;
45434;SDS011;31183;47.404;8.500;2023-12-07T14:02:13;21.45;;;16.67;;
45434;SDS011;31183;47.404;8.500;2023-12-07T14:04:39;23.05;;;16.38;;
45434;SDS011;31183;47.404;8.500;2023-12-07T14:07:07;23.92;;;17.88;;
45434;SDS011;31183;47.404;8.500;2023-12-07T14:09:39;24.27;;;16.70;;
45434;SDS011;31183;47.404;8.500;2023-12-07T14:12:22;23.80;;;17.90;;
45434;SDS011;31183;47.404;8.500;2023-12-07T14:14:49;22.80;;;16.63;;
45434;SDS011;31183;47.404;8.500;2023-12-07T14:17:16;23.77;;;16.02;;
45434;SDS011;31183;47.404;8.500;2023-12-07T14:19:45;20.75;;;15.90;;
45434;SDS011;31183;47.404;8.500;2023-12-07T14:22:15;22.92;;;16.08;;
45434;SDS011;31183;47.404;8.500;2023-12-07T14:24:42;21.38;;;16.25;;
45434;SDS011;31183;47.404;8.500;2023-12-07T14:27:08;25.60;;;18.05;;
45434;SDS011;31183;47.404;8.500;2023-12-07T14:29:35;23.65;;;17.15;;
45434;SDS011;31183;47.404;8.500;2023-12-07T14:32:02;26.65;;;17.58;;
45434;SDS011;31183;47.404;8.500;2023-12-07T14:34:30;21.60;;;16.45;;
45434;SDS011;31183;47.404;8.500;2023-12-07T14:37:01;23.63;;;15.82;;
45434;SDS011;31183;47.404;8.500;2023-12-07T14:39:35;22.58;;;16.15;;
45434;SDS011;31183;47.404;8.500;2023-12-07T14:42:02;23.75;;;17.08;;
45434;SDS011;31183;47.404;8.500;2023-12-07T14:44:31;24.40;;;17.00;;
45434;SDS011;31183;47.404;8.500;2023-12-07T14:46:58;26.35;;;17.02;;